sensor_id;sensor_type;location;lat;lon;timestamp;P1;durP1;ratioP1;P2;durP2;ratioP2
7029;SDS011;3556;53.500;10.176;2023-03-14T00:02:09;5.67;;;3.57;;
7029;SDS011;3556;53.500;10.176;2023-03-14T00:04:35;5.00;;;3.77;;
7029;SDS011;3556;53.500;10.176;2023-03-14T00:07:01;4.30;;;3.90;;
7029;SDS011;3556;53.500;10.176;2023-03-14T00:09:27;5.93;;;3.57;;
7029;SDS011;3556;53.500;10.176;2023-03-14T00:11:54;3.77;;;3.57;;
7029;SDS011;3556;53.500;10.176;2023-03-14T00:14:20;5.23;;;4.00;;
7029;SDS011;3556;53.500;10.176;2023-03-14T00:16:46;6.27;;;3.30;;
7029;SDS011;3556;53.500;10.176;2023-03-14T00:19:12;5.33;;;3.23;;
7029;SDS011;3556;53.500;10.176;2023-03-14T00:21:37;3.40;;;3.20;;
7029;SDS011;3556;53.500;10.176;2023-03-14T00:24:03;3.80;;;3.40;;
7029;SDS011;3556;53.500;10.176;2023-03-14T00:26:29;4.63;;;3.70;;
7029;SDS011;3556;53.500;10.176;2023-03-14T00:28:54;5.67;;;3.20;;
7029;SDS011;3556;53.500;10.176;2023-03-14T00:31:20;4.03;;;3.53;;
7029;SDS011;3556;53.500;10.176;2023-03-14T00:33:46;3.87;;;3.53;;
7029;SDS011;3556;53.500;10.176;2023-03-14T00:36:13;6.70;;;3.90;;
7029;SDS011;3556;53.500;10.176;2023-03-14T00:38:41;3.63;;;3.30;;
7029;SDS011;3556;53.500;10.176;2023-03-14T00:41:09;7.10;;;3.70;;
7029;SDS011;3556;53.500;10.176;2023-03-14T00:43:36;4.13;;;2.90;;
7029;SDS011;3556;53.500;10.176;2023-03-14T00:46:02;3.80;;;3.50;;
7029;SDS011;3556;53.500;10.176;2023-03-14T00:48:29;2.93;;;2.70;;
7029;SDS011;3556;53.500;10.176;2023-03-14T00:50:55;8.10;;;4.07;;
7029;SDS011;3556;53.500;10.176;2023-03-14T00:53:21;4.60;;;3.20;;
7029;SDS011;3556;53.500;10.176;2023-03-14T00:55:46;3.57;;;3.27;;
7029;SDS011;3556;53.500;10.176;2023-03-14T00:58:13;7.37;;;3.27;;
7029;SDS011;3556;53.500;10.176;2023-03-14T01:00:40;5.60;;;3.23;;
7029;SDS011;3556;53.500;10.176;2023-03-14T01:03:07;6.03;;;3.40;;
7029;SDS011;3556;53.500;10.176;2023-03-14T01:05:33;4.10;;;3.47;;
7029;SDS011;3556;53.500;10.176;2023-03-14T01:07:59;4.67;;;3.57;;
7029;SDS011;3556;53.500;10.176;2023-03-14T01:10:24;4.70;;;3.40;;
7029;SDS011;3556;53.500;10.176;2023-03-14T01:12:50;4.30;;;3.67;;
7029;SDS011;3556;53.500;10.176;2023-03-14T01:15:16;3.90;;;3.40;;
7029;SDS011;3556;53.500;10.176;2023-03-14T01:17:42;5.03;;;3.73;;
7029;SDS011;3556;53.500;10.176;2023-03-14T01:20:10;4.73;;;3.90;;
7029;SDS011;3556;53.500;10.176;2023-03-14T01:22:37;10.73;;;3.80;;
7029;SDS011;3556;53.500;10.176;2023-03-14T01:25:08;6.50;;;3.87;;
7029;SDS011;3556;53.500;10.176;2023-03-14T01:27:36;3.70;;;3.50;;
7029;SDS011;3556;53.500;10.176;2023-03-14T01:30:02;13.43;;;3.80;;
7029;SDS011;3556;53.500;10.176;2023-03-14T01:32:29;6.30;;;3.70;;
7029;SDS011;3556;53.500;10.176;2023-03-14T01:34:54;5.43;;;3.90;;
7029;SDS011;3556;53.500;10.176;2023-03-14T01:37:20;8.43;;;3.83;;
7029;SDS011;3556;53.500;10.176;2023-03-14T01:39:46;6.20;;;3.87;;
7029;SDS011;3556;53.500;10.176;2023-03-14T01:42:12;4.23;;;3.87;;
7029;SDS011;3556;53.500;10.176;2023-03-14T01:44:58;5.70;;;3.67;;
7029;SDS011;3556;53.500;10.176;2023-03-14T01:47:25;10.27;;;4.10;;
7029;SDS011;3556;53.500;10.176;2023-03-14T01:49:53;3.70;;;3.40;;
7029;SDS011;3556;53.500;10.176;2023-03-14T01:52:32;5.53;;;3.70;;
7029;SDS011;3556;53.500;10.176;2023-03-14T01:55:19;4.80;;;3.47;;
7029;SDS011;3556;53.500;10.176;2023-03-14T01:57:52;5.33;;;3.93;;
7029;SDS011;3556;53.500;10.176;2023-03-14T02:00:22;8.27;;;3.60;;
7029;SDS011;3556;53.500;10.176;2023-03-14T02:02:50;6.07;;;4.03;;
7029;SDS011;3556;53.500;10.176;2023-03-14T02:05:21;6.03;;;3.90;;
7029;SDS011;3556;53.500;10.176;2023-03-14T02:07:50;14.60;;;3.87;;
7029;SDS011;3556;53.500;10.176;2023-03-14T02:10:19;5.10;;;4.10;;
7029;SDS011;3556;53.500;10.176;2023-03-14T02:12:49;5.80;;;3.20;;
7029;SDS011;3556;53.500;10.176;2023-03-14T02:15:16;7.30;;;3.60;;
7029;SDS011;3556;53.500;10.176;2023-03-14T02:17:42;16.60;;;3.53;;
7029;SDS011;3556;53.500;10.176;2023-03-14T02:22:59;7.67;;;2.97;;
7029;SDS011;3556;53.500;10.176;2023-03-14T02:28:09;10.33;;;3.20;;
7029;SDS011;3556;53.500;10.176;2023-03-14T02:30:35;4.23;;;3.00;;
7029;SDS011;3556;53.500;10.176;2023-03-14T02:35:28;7.13;;;3.33;;
7029;SDS011;3556;53.500;10.176;2023-03-14T02:40:42;10.63;;;3.70;;
7029;SDS011;3556;53.500;10.176;2023-03-14T02:43:07;5.33;;;3.77;;
7029;SDS011;3556;53.500;10.176;2023-03-14T02:45:35;8.37;;;3.80;;
7029;SDS011;3556;53.500;10.176;2023-03-14T02:48:11;9.20;;;3.20;;
7029;SDS011;3556;53.500;10.176;2023-03-14T02:50:43;8.13;;;3.60;;
7029;SDS011;3556;53.500;10.176;2023-03-14T02:53:12;4.90;;;3.90;;
7029;SDS011;3556;53.500;10.176;2023-03-14T02:55:39;7.17;;;3.77;;
7029;SDS011;3556;53.500;10.176;2023-03-14T02:58:04;7.37;;;4.47;;
7029;SDS011;3556;53.500;10.176;2023-03-14T03:00:30;7.03;;;3.93;;
7029;SDS011;3556;53.500;10.176;2023-03-14T03:02:56;6.17;;;3.47;;
7029;SDS011;3556;53.500;10.176;2023-03-14T03:05:21;5.70;;;3.93;;
7029;SDS011;3556;53.500;10.176;2023-03-14T03:07:47;5.60;;;3.63;;
7029;SDS011;3556;53.500;10.176;2023-03-14T03:10:12;6.17;;;3.90;;
7029;SDS011;3556;53.500;10.176;2023-03-14T03:12:38;5.60;;;3.70;;
7029;SDS011;3556;53.500;10.176;2023-03-14T03:15:04;6.13;;;4.20;;
7029;SDS011;3556;53.500;10.176;2023-03-14T03:17:30;5.87;;;3.53;;
7029;SDS011;3556;53.500;10.176;2023-03-14T03:19:55;5.97;;;3.90;;
7029;SDS011;3556;53.500;10.176;2023-03-14T03:22:21;4.50;;;3.43;;
7029;SDS011;3556;53.500;10.176;2023-03-14T03:24:46;5.33;;;3.60;;
7029;SDS011;3556;53.500;10.176;2023-03-14T03:27:13;7.43;;;3.90;;
7029;SDS011;3556;53.500;10.176;2023-03-14T03:29:39;4.90;;;3.30;;
7029;SDS011;3556;53.500;10.176;2023-03-14T03:32:04;6.60;;;3.53;;
7029;SDS011;3556;53.500;10.176;2023-03-14T03:34:30;8.53;;;3.63;;
7029;SDS011;3556;53.500;10.176;2023-03-14T03:36:56;8.00;;;3.60;;
7029;SDS011;3556;53.500;10.176;2023-03-14T03:39:22;7.27;;;3.27;;
7029;SDS011;3556;53.500;10.176;2023-03-14T03:41:48;10.03;;;3.80;;
7029;SDS011;3556;53.500;10.176;2023-03-14T03:44:13;7.73;;;3.27;;
7029;SDS011;3556;53.500;10.176;2023-03-14T03:46:39;8.83;;;3.57;;
7029;SDS011;3556;53.500;10.176;2023-03-14T03:49:04;5.83;;;3.27;;
7029;SDS011;3556;53.500;10.176;2023-03-14T03:51:30;4.77;;;3.40;;
7029;SDS011;3556;53.500;10.176;2023-03-14T03:53:56;5.93;;;3.63;;
7029;SDS011;3556;53.500;10.176;2023-03-14T03:56:22;7.17;;;3.50;;
7029;SDS011;3556;53.500;10.176;2023-03-14T03:58:47;4.63;;;3.33;;
7029;SDS011;3556;53.500;10.176;2023-03-14T04:01:13;3.80;;;3.40;;
7029;SDS011;3556;53.500;10.176;2023-03-14T04:03:39;4.87;;;3.43;;
7029;SDS011;3556;53.500;10.176;2023-03-14T04:06:09;5.53;;;3.70;;
7029;SDS011;3556;53.500;10.176;2023-03-14T04:08:36;3.80;;;3.50;;
7029;SDS011;3556;53.500;10.176;2023-03-14T04:11:03;7.23;;;3.67;;
7029;SDS011;3556;53.500;10.176;2023-03-14T04:13:29;3.27;;;3.13;;
7029;SDS011;3556;53.500;10.176;2023-03-14T04:15:55;4.23;;;3.77;;
7029;SDS011;3556;53.500;10.176;2023-03-14T04:18:21;6.47;;;4.20;;
7029;SDS011;3556;53.500;10.176;2023-03-14T04:20:55;8.40;;;3.60;;
7029;SDS011;3556;53.500;10.176;2023-03-14T04:23:22;5.67;;;3.70;;
7029;SDS011;3556;53.500;10.176;2023-03-14T04:25:49;7.90;;;3.60;;
7029;SDS011;3556;53.500;10.176;2023-03-14T04:28:16;4.10;;;3.27;;
7029;SDS011;3556;53.500;10.176;2023-03-14T04:30:42;8.53;;;3.87;;
7029;SDS011;3556;53.500;10.176;2023-03-14T04:33:07;7.13;;;3.67;;
7029;SDS011;3556;53.500;10.176;2023-03-14T04:35:33;10.33;;;3.77;;
7029;SDS011;3556;53.500;10.176;2023-03-14T04:37:59;4.70;;;3.90;;
7029;SDS011;3556;53.500;10.176;2023-03-14T04:40:25;7.37;;;4.30;;
7029;SDS011;3556;53.500;10.176;2023-03-14T04:42:51;4.40;;;4.10;;
7029;SDS011;3556;53.500;10.176;2023-03-14T04:45:17;4.03;;;3.63;;
7029;SDS011;3556;53.500;10.176;2023-03-14T04:47:42;6.40;;;3.80;;
7029;SDS011;3556;53.500;10.176;2023-03-14T04:50:08;11.23;;;4.23;;
7029;SDS011;3556;53.500;10.176;2023-03-14T04:52:34;8.87;;;4.30;;
7029;SDS011;3556;53.500;10.176;2023-03-14T04:55:00;8.10;;;4.53;;
7029;SDS011;3556;53.500;10.176;2023-03-14T04:57:26;3.83;;;3.53;;
7029;SDS011;3556;53.500;10.176;2023-03-14T04:59:51;9.80;;;4.73;;
7029;SDS011;3556;53.500;10.176;2023-03-14T05:02:17;4.63;;;4.23;;
7029;SDS011;3556;53.500;10.176;2023-03-14T05:04:43;5.53;;;4.40;;
7029;SDS011;3556;53.500;10.176;2023-03-14T05:07:08;6.23;;;4.50;;
7029;SDS011;3556;53.500;10.176;2023-03-14T05:09:34;8.10;;;3.50;;
7029;SDS011;3556;53.500;10.176;2023-03-14T05:11:59;6.67;;;3.73;;
7029;SDS011;3556;53.500;10.176;2023-03-14T05:14:25;4.93;;;3.77;;
7029;SDS011;3556;53.500;10.176;2023-03-14T05:16:51;7.17;;;3.70;;
7029;SDS011;3556;53.500;10.176;2023-03-14T05:19:16;4.13;;;3.50;;
7029;SDS011;3556;53.500;10.176;2023-03-14T05:21:42;4.00;;;3.43;;
7029;SDS011;3556;53.500;10.176;2023-03-14T05:24:07;3.73;;;3.50;;
7029;SDS011;3556;53.500;10.176;2023-03-14T05:26:33;4.17;;;3.73;;
7029;SDS011;3556;53.500;10.176;2023-03-14T05:28:58;3.60;;;3.30;;
7029;SDS011;3556;53.500;10.176;2023-03-14T05:31:24;4.70;;;4.03;;
7029;SDS011;3556;53.500;10.176;2023-03-14T05:33:49;3.67;;;3.43;;
7029;SDS011;3556;53.500;10.176;2023-03-14T05:36:15;8.63;;;3.63;;
7029;SDS011;3556;53.500;10.176;2023-03-14T05:38:41;4.87;;;3.80;;
7029;SDS011;3556;53.500;10.176;2023-03-14T05:41:06;4.13;;;3.87;;
7029;SDS011;3556;53.500;10.176;2023-03-14T05:43:32;4.60;;;4.20;;
7029;SDS011;3556;53.500;10.176;2023-03-14T05:45:58;4.80;;;3.60;;
7029;SDS011;3556;53.500;10.176;2023-03-14T05:48:23;7.60;;;3.80;;
7029;SDS011;3556;53.500;10.176;2023-03-14T05:50:54;5.83;;;3.50;;
7029;SDS011;3556;53.500;10.176;2023-03-14T05:53:20;4.87;;;4.33;;
7029;SDS011;3556;53.500;10.176;2023-03-14T05:55:46;3.50;;;3.20;;
7029;SDS011;3556;53.500;10.176;2023-03-14T05:58:11;6.37;;;3.80;;
7029;SDS011;3556;53.500;10.176;2023-03-14T06:00:37;9.30;;;3.70;;
7029;SDS011;3556;53.500;10.176;2023-03-14T06:03:02;4.13;;;3.83;;
7029;SDS011;3556;53.500;10.176;2023-03-14T06:05:28;6.53;;;4.23;;
7029;SDS011;3556;53.500;10.176;2023-03-14T06:07:54;7.67;;;4.13;;
7029;SDS011;3556;53.500;10.176;2023-03-14T06:10:19;3.97;;;3.67;;
7029;SDS011;3556;53.500;10.176;2023-03-14T06:12:45;4.37;;;3.57;;
7029;SDS011;3556;53.500;10.176;2023-03-14T06:15:10;3.93;;;3.60;;
7029;SDS011;3556;53.500;10.176;2023-03-14T06:17:37;9.90;;;3.83;;
7029;SDS011;3556;53.500;10.176;2023-03-14T06:20:02;6.13;;;3.40;;
7029;SDS011;3556;53.500;10.176;2023-03-14T06:22:28;4.23;;;3.20;;
7029;SDS011;3556;53.500;10.176;2023-03-14T06:24:54;7.83;;;3.83;;
7029;SDS011;3556;53.500;10.176;2023-03-14T06:27:19;4.40;;;3.37;;
7029;SDS011;3556;53.500;10.176;2023-03-14T06:29:45;3.80;;;3.40;;
7029;SDS011;3556;53.500;10.176;2023-03-14T06:32:11;4.60;;;3.77;;
7029;SDS011;3556;53.500;10.176;2023-03-14T06:34:36;7.70;;;3.93;;
7029;SDS011;3556;53.500;10.176;2023-03-14T06:37:03;8.87;;;4.43;;
7029;SDS011;3556;53.500;10.176;2023-03-14T06:39:29;5.23;;;3.90;;
7029;SDS011;3556;53.500;10.176;2023-03-14T06:41:56;3.83;;;3.47;;
7029;SDS011;3556;53.500;10.176;2023-03-14T06:44:21;4.07;;;3.70;;
7029;SDS011;3556;53.500;10.176;2023-03-14T06:46:47;5.43;;;3.50;;
7029;SDS011;3556;53.500;10.176;2023-03-14T06:49:13;7.67;;;3.30;;
7029;SDS011;3556;53.500;10.176;2023-03-14T06:51:38;6.20;;;3.00;;
7029;SDS011;3556;53.500;10.176;2023-03-14T06:54:04;6.53;;;3.40;;
7029;SDS011;3556;53.500;10.176;2023-03-14T06:56:30;5.80;;;3.27;;
7029;SDS011;3556;53.500;10.176;2023-03-14T06:58:55;5.77;;;3.33;;
7029;SDS011;3556;53.500;10.176;2023-03-14T07:01:23;4.67;;;2.97;;
7029;SDS011;3556;53.500;10.176;2023-03-14T07:03:51;3.10;;;2.90;;
7029;SDS011;3556;53.500;10.176;2023-03-14T07:06:17;6.50;;;3.00;;
7029;SDS011;3556;53.500;10.176;2023-03-14T07:08:42;3.50;;;2.93;;
7029;SDS011;3556;53.500;10.176;2023-03-14T07:11:08;3.57;;;2.70;;
7029;SDS011;3556;53.500;10.176;2023-03-14T07:13:36;8.20;;;3.20;;
7029;SDS011;3556;53.500;10.176;2023-03-14T07:16:02;6.73;;;2.60;;
7029;SDS011;3556;53.500;10.176;2023-03-14T07:18:28;8.30;;;2.77;;
7029;SDS011;3556;53.500;10.176;2023-03-14T07:20:54;10.70;;;3.17;;
7029;SDS011;3556;53.500;10.176;2023-03-14T07:23:19;4.97;;;2.90;;
7029;SDS011;3556;53.500;10.176;2023-03-14T07:25:45;4.67;;;2.70;;
7029;SDS011;3556;53.500;10.176;2023-03-14T07:28:10;5.90;;;2.80;;
7029;SDS011;3556;53.500;10.176;2023-03-14T07:30:36;8.07;;;2.77;;
7029;SDS011;3556;53.500;10.176;2023-03-14T07:33:02;2.37;;;2.03;;
7029;SDS011;3556;53.500;10.176;2023-03-14T07:35:28;3.87;;;2.13;;
7029;SDS011;3556;53.500;10.176;2023-03-14T07:37:53;3.90;;;2.33;;
7029;SDS011;3556;53.500;10.176;2023-03-14T07:40:19;5.50;;;2.07;;
7029;SDS011;3556;53.500;10.176;2023-03-14T07:42:44;2.40;;;2.10;;
7029;SDS011;3556;53.500;10.176;2023-03-14T07:45:10;4.37;;;2.23;;
7029;SDS011;3556;53.500;10.176;2023-03-14T07:47:36;2.50;;;1.73;;
7029;SDS011;3556;53.500;10.176;2023-03-14T07:50:02;1.70;;;1.27;;
7029;SDS011;3556;53.500;10.176;2023-03-14T07:52:29;3.37;;;1.40;;
7029;SDS011;3556;53.500;10.176;2023-03-14T07:54:55;1.73;;;1.53;;
7029;SDS011;3556;53.500;10.176;2023-03-14T07:57:20;2.87;;;1.67;;
7029;SDS011;3556;53.500;10.176;2023-03-14T07:59:46;1.63;;;1.53;;
7029;SDS011;3556;53.500;10.176;2023-03-14T08:02:12;1.87;;;1.43;;
7029;SDS011;3556;53.500;10.176;2023-03-14T08:04:38;5.27;;;2.10;;
7029;SDS011;3556;53.500;10.176;2023-03-14T08:07:05;2.53;;;2.33;;
7029;SDS011;3556;53.500;10.176;2023-03-14T08:09:31;5.17;;;2.73;;
7029;SDS011;3556;53.500;10.176;2023-03-14T08:11:56;2.90;;;2.70;;
7029;SDS011;3556;53.500;10.176;2023-03-14T08:14:22;3.00;;;2.80;;
7029;SDS011;3556;53.500;10.176;2023-03-14T08:16:49;3.60;;;2.47;;
7029;SDS011;3556;53.500;10.176;2023-03-14T08:19:15;3.80;;;3.30;;
7029;SDS011;3556;53.500;10.176;2023-03-14T08:21:41;3.80;;;3.50;;
7029;SDS011;3556;53.500;10.176;2023-03-14T08:24:06;3.63;;;3.30;;
7029;SDS011;3556;53.500;10.176;2023-03-14T08:26:32;3.30;;;3.00;;
7029;SDS011;3556;53.500;10.176;2023-03-14T08:28:58;8.80;;;3.60;;
7029;SDS011;3556;53.500;10.176;2023-03-14T08:31:23;3.77;;;3.20;;
7029;SDS011;3556;53.500;10.176;2023-03-14T08:33:49;4.90;;;3.63;;
7029;SDS011;3556;53.500;10.176;2023-03-14T08:36:17;4.40;;;3.87;;
7029;SDS011;3556;53.500;10.176;2023-03-14T08:38:42;9.43;;;4.23;;
7029;SDS011;3556;53.500;10.176;2023-03-14T08:41:09;6.70;;;4.50;;
7029;SDS011;3556;53.500;10.176;2023-03-14T08:43:35;7.70;;;4.20;;
7029;SDS011;3556;53.500;10.176;2023-03-14T08:46:01;8.63;;;4.90;;
7029;SDS011;3556;53.500;10.176;2023-03-14T08:48:27;6.07;;;5.47;;
7029;SDS011;3556;53.500;10.176;2023-03-14T08:50:55;10.97;;;5.33;;
7029;SDS011;3556;53.500;10.176;2023-03-14T08:53:31;7.67;;;5.27;;
7029;SDS011;3556;53.500;10.176;2023-03-14T08:55:56;12.70;;;5.70;;
7029;SDS011;3556;53.500;10.176;2023-03-14T08:58:22;9.60;;;5.73;;
7029;SDS011;3556;53.500;10.176;2023-03-14T09:00:48;5.30;;;4.80;;
7029;SDS011;3556;53.500;10.176;2023-03-14T09:03:14;9.63;;;5.50;;
7029;SDS011;3556;53.500;10.176;2023-03-14T09:05:40;9.70;;;5.87;;
7029;SDS011;3556;53.500;10.176;2023-03-14T09:08:06;7.07;;;5.33;;
7029;SDS011;3556;53.500;10.176;2023-03-14T09:10:31;10.33;;;5.23;;
7029;SDS011;3556;53.500;10.176;2023-03-14T09:12:57;8.47;;;5.63;;
7029;SDS011;3556;53.500;10.176;2023-03-14T09:15:23;5.40;;;5.00;;
7029;SDS011;3556;53.500;10.176;2023-03-14T09:17:49;6.80;;;5.00;;
7029;SDS011;3556;53.500;10.176;2023-03-14T09:20:14;6.10;;;4.70;;
7029;SDS011;3556;53.500;10.176;2023-03-14T09:22:40;13.33;;;5.90;;
7029;SDS011;3556;53.500;10.176;2023-03-14T09:25:06;5.07;;;4.67;;
7029;SDS011;3556;53.500;10.176;2023-03-14T09:27:32;12.07;;;5.23;;
7029;SDS011;3556;53.500;10.176;2023-03-14T09:29:58;5.23;;;4.73;;
7029;SDS011;3556;53.500;10.176;2023-03-14T09:32:24;6.03;;;4.23;;
7029;SDS011;3556;53.500;10.176;2023-03-14T09:34:49;4.67;;;4.30;;
7029;SDS011;3556;53.500;10.176;2023-03-14T09:37:15;4.83;;;4.20;;
7029;SDS011;3556;53.500;10.176;2023-03-14T09:39:41;4.10;;;3.80;;
7029;SDS011;3556;53.500;10.176;2023-03-14T09:42:07;5.37;;;4.27;;
7029;SDS011;3556;53.500;10.176;2023-03-14T09:44:39;8.57;;;4.30;;
7029;SDS011;3556;53.500;10.176;2023-03-14T09:47:17;4.70;;;3.90;;
7029;SDS011;3556;53.500;10.176;2023-03-14T09:49:45;7.50;;;4.87;;
7029;SDS011;3556;53.500;10.176;2023-03-14T09:52:31;5.23;;;3.97;;
7029;SDS011;3556;53.500;10.176;2023-03-14T09:55:02;5.03;;;4.60;;
7029;SDS011;3556;53.500;10.176;2023-03-14T09:57:30;7.17;;;4.87;;
7029;SDS011;3556;53.500;10.176;2023-03-14T10:00:00;5.60;;;4.70;;
7029;SDS011;3556;53.500;10.176;2023-03-14T10:02:38;8.80;;;4.40;;
7029;SDS011;3556;53.500;10.176;2023-03-14T10:05:07;8.80;;;5.60;;
7029;SDS011;3556;53.500;10.176;2023-03-14T10:07:40;5.97;;;5.43;;
7029;SDS011;3556;53.500;10.176;2023-03-14T10:10:13;8.00;;;5.57;;
7029;SDS011;3556;53.500;10.176;2023-03-14T10:13:05;5.97;;;3.97;;
7029;SDS011;3556;53.500;10.176;2023-03-14T10:15:47;2.67;;;2.47;;
7029;SDS011;3556;53.500;10.176;2023-03-14T10:18:16;1.03;;;1.03;;
7029;SDS011;3556;53.500;10.176;2023-03-14T10:20:45;3.07;;;2.87;;
7029;SDS011;3556;53.500;10.176;2023-03-14T10:25:42;3.60;;;3.40;;
7029;SDS011;3556;53.500;10.176;2023-03-14T10:28:29;4.67;;;2.47;;
7029;SDS011;3556;53.500;10.176;2023-03-14T10:31:02;3.53;;;3.30;;
7029;SDS011;3556;53.500;10.176;2023-03-14T10:33:31;2.20;;;1.87;;
7029;SDS011;3556;53.500;10.176;2023-03-14T10:36:03;1.73;;;1.17;;
7029;SDS011;3556;53.500;10.176;2023-03-14T10:38:35;4.30;;;1.60;;
7029;SDS011;3556;53.500;10.176;2023-03-14T10:41:02;5.20;;;1.47;;
7029;SDS011;3556;53.500;10.176;2023-03-14T10:43:39;2.53;;;2.43;;
7029;SDS011;3556;53.500;10.176;2023-03-14T10:48:42;1.90;;;1.63;;
7029;SDS011;3556;53.500;10.176;2023-03-14T10:51:31;3.17;;;1.40;;
7029;SDS011;3556;53.500;10.176;2023-03-14T10:54:03;0.97;;;0.97;;
7029;SDS011;3556;53.500;10.176;2023-03-14T10:56:43;1.00;;;0.80;;
7029;SDS011;3556;53.500;10.176;2023-03-14T10:59:13;0.87;;;0.87;;
7029;SDS011;3556;53.500;10.176;2023-03-14T11:04:15;3.43;;;1.10;;
7029;SDS011;3556;53.500;10.176;2023-03-14T11:07:03;0.80;;;0.70;;
7029;SDS011;3556;53.500;10.176;2023-03-14T11:10:12;1.77;;;0.60;;
7029;SDS011;3556;53.500;10.176;2023-03-14T11:13:08;1.10;;;0.70;;
7029;SDS011;3556;53.500;10.176;2023-03-14T11:15:55;1.83;;;1.07;;
7029;SDS011;3556;53.500;10.176;2023-03-14T11:24:13;0.80;;;0.80;;
7029;SDS011;3556;53.500;10.176;2023-03-14T11:29:47;0.70;;;0.70;;
7029;SDS011;3556;53.500;10.176;2023-03-14T11:32:33;1.77;;;0.60;;
7029;SDS011;3556;53.500;10.176;2023-03-14T11:35:19;1.43;;;1.33;;
7029;SDS011;3556;53.500;10.176;2023-03-14T11:38:19;1.13;;;0.83;;
7029;SDS011;3556;53.500;10.176;2023-03-14T11:40:49;1.03;;;0.90;;
7029;SDS011;3556;53.500;10.176;2023-03-14T11:43:20;4.10;;;0.70;;
7029;SDS011;3556;53.500;10.176;2023-03-14T11:45:53;1.13;;;1.03;;
7029;SDS011;3556;53.500;10.176;2023-03-14T11:48:37;1.20;;;1.00;;
7029;SDS011;3556;53.500;10.176;2023-03-14T11:51:23;2.83;;;0.63;;
7029;SDS011;3556;53.500;10.176;2023-03-14T11:53:55;2.40;;;0.80;;
7029;SDS011;3556;53.500;10.176;2023-03-14T11:56:25;5.70;;;1.20;;
7029;SDS011;3556;53.500;10.176;2023-03-14T11:58:58;4.20;;;0.60;;
7029;SDS011;3556;53.500;10.176;2023-03-14T12:01:31;1.20;;;0.87;;
7029;SDS011;3556;53.500;10.176;2023-03-14T12:04:11;2.27;;;1.17;;
7029;SDS011;3556;53.500;10.176;2023-03-14T12:06:49;2.10;;;0.80;;
7029;SDS011;3556;53.500;10.176;2023-03-14T12:09:16;6.00;;;0.97;;
7029;SDS011;3556;53.500;10.176;2023-03-14T12:11:47;3.33;;;1.07;;
7029;SDS011;3556;53.500;10.176;2023-03-14T12:14:27;1.67;;;1.10;;
7029;SDS011;3556;53.500;10.176;2023-03-14T12:16:59;3.10;;;1.23;;
7029;SDS011;3556;53.500;10.176;2023-03-14T12:19:43;7.13;;;0.93;;
7029;SDS011;3556;53.500;10.176;2023-03-14T12:24:37;2.90;;;1.00;;
7029;SDS011;3556;53.500;10.176;2023-03-14T12:27:09;8.20;;;1.57;;
7029;SDS011;3556;53.500;10.176;2023-03-14T12:29:57;1.47;;;0.93;;
7029;SDS011;3556;53.500;10.176;2023-03-14T12:32:25;3.63;;;0.90;;
7029;SDS011;3556;53.500;10.176;2023-03-14T12:34:51;5.50;;;1.03;;
7029;SDS011;3556;53.500;10.176;2023-03-14T12:37:22;9.47;;;1.80;;
7029;SDS011;3556;53.500;10.176;2023-03-14T12:43:00;7.90;;;1.00;;
7029;SDS011;3556;53.500;10.176;2023-03-14T12:53:33;7.00;;;1.47;;
7029;SDS011;3556;53.500;10.176;2023-03-14T12:58:47;4.40;;;1.60;;
7029;SDS011;3556;53.500;10.176;2023-03-14T13:01:20;5.43;;;2.10;;
7029;SDS011;3556;53.500;10.176;2023-03-14T13:03:47;14.83;;;4.10;;
7029;SDS011;3556;53.500;10.176;2023-03-14T13:12:11;5.47;;;1.40;;
7029;SDS011;3556;53.500;10.176;2023-03-14T13:14:43;9.50;;;2.13;;
7029;SDS011;3556;53.500;10.176;2023-03-14T13:17:14;12.23;;;1.70;;
7029;SDS011;3556;53.500;10.176;2023-03-14T13:19:44;9.53;;;1.50;;
7029;SDS011;3556;53.500;10.176;2023-03-14T13:22:20;14.83;;;1.93;;
7029;SDS011;3556;53.500;10.176;2023-03-14T13:24:50;7.60;;;1.80;;
7029;SDS011;3556;53.500;10.176;2023-03-14T13:27:23;4.50;;;2.07;;
7029;SDS011;3556;53.500;10.176;2023-03-14T13:29:50;6.43;;;2.43;;
7029;SDS011;3556;53.500;10.176;2023-03-14T13:32:17;15.97;;;3.10;;
7029;SDS011;3556;53.500;10.176;2023-03-14T13:34:45;8.57;;;2.70;;
7029;SDS011;3556;53.500;10.176;2023-03-14T13:37:23;10.57;;;2.37;;
7029;SDS011;3556;53.500;10.176;2023-03-14T13:39:50;5.70;;;2.20;;
7029;SDS011;3556;53.500;10.176;2023-03-14T13:42:20;15.40;;;4.90;;
7029;SDS011;3556;53.500;10.176;2023-03-14T13:44:50;10.53;;;2.87;;
7029;SDS011;3556;53.500;10.176;2023-03-14T13:47:18;9.10;;;2.07;;
7029;SDS011;3556;53.500;10.176;2023-03-14T13:49:46;5.23;;;1.80;;
7029;SDS011;3556;53.500;10.176;2023-03-14T13:52:30;5.37;;;1.70;;
7029;SDS011;3556;53.500;10.176;2023-03-14T13:55:00;4.50;;;1.80;;
7029;SDS011;3556;53.500;10.176;2023-03-14T13:57:28;7.33;;;1.63;;
7029;SDS011;3556;53.500;10.176;2023-03-14T14:00:18;4.50;;;1.27;;
7029;SDS011;3556;53.500;10.176;2023-03-14T14:02:45;4.20;;;1.13;;
7029;SDS011;3556;53.500;10.176;2023-03-14T14:05:12;5.33;;;1.67;;
7029;SDS011;3556;53.500;10.176;2023-03-14T14:07:39;11.13;;;2.37;;
7029;SDS011;3556;53.500;10.176;2023-03-14T14:10:08;6.27;;;1.50;;
7029;SDS011;3556;53.500;10.176;2023-03-14T14:12:37;19.70;;;1.63;;
7029;SDS011;3556;53.500;10.176;2023-03-14T14:15:21;7.30;;;2.00;;
7029;SDS011;3556;53.500;10.176;2023-03-14T14:22:51;11.10;;;2.53;;
7029;SDS011;3556;53.500;10.176;2023-03-14T14:25:17;15.03;;;2.83;;
7029;SDS011;3556;53.500;10.176;2023-03-14T14:27:46;9.50;;;1.93;;
7029;SDS011;3556;53.500;10.176;2023-03-14T14:32:43;6.33;;;3.37;;
7029;SDS011;3556;53.500;10.176;2023-03-14T14:35:10;16.30;;;3.40;;
7029;SDS011;3556;53.500;10.176;2023-03-14T14:37:47;6.73;;;1.80;;
7029;SDS011;3556;53.500;10.176;2023-03-14T14:40:18;13.57;;;1.80;;
7029;SDS011;3556;53.500;10.176;2023-03-14T14:42:46;8.40;;;2.37;;
7029;SDS011;3556;53.500;10.176;2023-03-14T14:45:13;5.57;;;1.40;;
7029;SDS011;3556;53.500;10.176;2023-03-14T14:47:48;12.60;;;1.90;;
7029;SDS011;3556;53.500;10.176;2023-03-14T14:50:19;13.23;;;1.97;;
7029;SDS011;3556;53.500;10.176;2023-03-14T14:52:57;7.70;;;1.60;;
7029;SDS011;3556;53.500;10.176;2023-03-14T14:55:34;6.80;;;1.70;;
7029;SDS011;3556;53.500;10.176;2023-03-14T15:00:51;6.20;;;2.13;;
7029;SDS011;3556;53.500;10.176;2023-03-14T15:03:29;9.30;;;1.23;;
7029;SDS011;3556;53.500;10.176;2023-03-14T15:05:57;5.47;;;1.97;;
7029;SDS011;3556;53.500;10.176;2023-03-14T15:08:24;8.27;;;1.97;;
7029;SDS011;3556;53.500;10.176;2023-03-14T15:10:51;7.17;;;1.97;;
7029;SDS011;3556;53.500;10.176;2023-03-14T15:13:17;6.23;;;1.53;;
7029;SDS011;3556;53.500;10.176;2023-03-14T15:15:43;7.53;;;1.27;;
7029;SDS011;3556;53.500;10.176;2023-03-14T15:18:16;2.63;;;1.10;;
7029;SDS011;3556;53.500;10.176;2023-03-14T15:20:43;9.83;;;1.47;;
7029;SDS011;3556;53.500;10.176;2023-03-14T15:23:10;2.43;;;1.00;;
7029;SDS011;3556;53.500;10.176;2023-03-14T15:25:37;10.90;;;2.10;;
7029;SDS011;3556;53.500;10.176;2023-03-14T15:28:08;6.53;;;1.53;;
7029;SDS011;3556;53.500;10.176;2023-03-14T15:30:41;4.50;;;1.40;;
7029;SDS011;3556;53.500;10.176;2023-03-14T15:33:06;4.30;;;1.47;;
7029;SDS011;3556;53.500;10.176;2023-03-14T15:35:34;19.43;;;3.10;;
7029;SDS011;3556;53.500;10.176;2023-03-14T15:38:03;2.03;;;1.20;;
7029;SDS011;3556;53.500;10.176;2023-03-14T15:40:29;9.83;;;3.80;;
7029;SDS011;3556;53.500;10.176;2023-03-14T15:42:55;6.03;;;2.60;;
7029;SDS011;3556;53.500;10.176;2023-03-14T15:45:21;11.23;;;2.13;;
7029;SDS011;3556;53.500;10.176;2023-03-14T15:47:46;9.83;;;1.83;;
7029;SDS011;3556;53.500;10.176;2023-03-14T15:50:12;9.43;;;2.40;;
7029;SDS011;3556;53.500;10.176;2023-03-14T15:52:38;5.10;;;1.83;;
7029;SDS011;3556;53.500;10.176;2023-03-14T15:55:03;5.73;;;1.73;;
7029;SDS011;3556;53.500;10.176;2023-03-14T15:57:29;15.63;;;2.23;;
7029;SDS011;3556;53.500;10.176;2023-03-14T15:59:55;5.83;;;1.53;;
7029;SDS011;3556;53.500;10.176;2023-03-14T16:02:21;3.97;;;1.40;;
7029;SDS011;3556;53.500;10.176;2023-03-14T16:04:46;6.63;;;1.70;;
7029;SDS011;3556;53.500;10.176;2023-03-14T16:07:12;4.93;;;1.30;;
7029;SDS011;3556;53.500;10.176;2023-03-14T16:09:37;9.83;;;2.00;;